Time;durP1;ratioP1;P1;durP2;ratioP2;P2;SDS_P1;SDS_P2;PMS_P1;PMS_P2;Temp;Humidity;BMP_temperature;BMP_pressure;BME280_temperature;BME280_humidity;BME280_pressure;Samples;Min_cycle;Max_cycle;Signal;HPM_P1;HPM_P2
2023/12/22 00:02:13;;;;;;;18.88;2.63;;;;;;;;;;4967482;28;92330;-66
2023/12/22 00:04:39;;;;;;;18.35;2.25;;;;;;;;;;4969808;28;92781;-67
2023/12/22 00:07:06;;;;;;;25.25;4.68;;;;;;;;;;4973243;28;93336;-66
2023/12/22 00:09:32;;;;;;;19.85;2.55;;;;;;;;;;4970112;28;93451;-66
2023/12/22 00:11:58;;;;;;;14.65;2.80;;;;;;;;;;4967168;28;92533;-67
2023/12/22 00:14:25;;;;;;;17.45;2.78;;;;;;;;;;4964823;28;94413;-66
2023/12/22 00:16:51;;;;;;;23.60;2.67;;;;;;;;;;4974221;28;92678;-67
2023/12/22 00:19:17;;;;;;;13.75;2.15;;;;;;;;;;4974341;28;92435;-66
2023/12/22 00:21:44;;;;;;;7.63;1.42;;;;;;;;;;4969956;28;93380;-67
2023/12/22 00:24:10;;;;;;;10.35;1.25;;;;;;;;;;4967182;28;94809;-67
2023/12/22 00:26:36;;;;;;;10.13;1.90;;;;;;;;;;4970440;28;95553;-66
2023/12/22 00:29:03;;;;;;;5.68;1.25;;;;;;;;;;4967329;28;94507;-67
2023/12/22 00:31:29;;;;;;;7.40;1.15;;;;;;;;;;4966520;28;92596;-67
2023/12/22 00:33:55;;;;;;;3.95;1.00;;;;;;;;;;4969748;28;93083;-67
2023/12/22 00:36:24;;;;;;;7.07;1.13;;;;;;;;;;4964850;28;93509;-67
2023/12/22 00:38:50;;;;;;;5.65;1.20;;;;;;;;;;4966232;28;92556;-66
2023/12/22 00:41:17;;;;;;;9.70;1.00;;;;;;;;;;4974149;28;94090;-66
2023/12/22 00:43:43;;;;;;;10.73;1.33;;;;;;;;;;4969712;28;92585;-67
2023/12/22 00:46:10;;;;;;;10.40;1.33;;;;;;;;;;4972659;28;93526;-67
2023/12/22 00:48:36;;;;;;;12.00;1.45;;;;;;;;;;4969396;28;96338;-67
2023/12/22 00:51:03;;;;;;;7.38;1.20;;;;;;;;;;4967157;28;92462;-68
2023/12/22 00:53:29;;;;;;;9.02;1.45;;;;;;;;;;4969011;28;93129;-67
2023/12/22 00:55:55;;;;;;;10.68;1.75;;;;;;;;;;4966655;28;93745;-67
2023/12/22 00:58:22;;;;;;;6.00;1.75;;;;;;;;;;4969353;28;92705;-67
2023/12/22 01:00:48;;;;;;;10.07;1.85;;;;;;;;;;4968715;28;94227;-67
2023/12/22 01:03:14;;;;;;;10.50;1.50;;;;;;;;;;4970684;28;93505;-67
2023/12/22 01:05:41;;;;;;;7.75;1.42;;;;;;;;;;4981947;28;93161;-67
2023/12/22 01:08:08;;;;;;;6.55;1.65;;;;;;;;;;4967569;28;94120;-67
2023/12/22 01:10:34;;;;;;;9.27;1.92;;;;;;;;;;4965279;28;92691;-68
2023/12/22 01:13:01;;;;;;;7.32;1.33;;;;;;;;;;4972103;28;94931;-67
2023/12/22 01:15:27;;;;;;;6.25;1.40;;;;;;;;;;4966667;28;93370;-67
2023/12/22 01:17:54;;;;;;;13.88;1.77;;;;;;;;;;4967939;28;92474;-67
2023/12/22 01:20:20;;;;;;;11.60;1.42;;;;;;;;;;4970005;28;93290;-67
2023/12/22 01:22:47;;;;;;;12.93;2.28;;;;;;;;;;4969115;28;93445;-67
2023/12/22 01:25:13;;;;;;;9.98;1.70;;;;;;;;;;4973026;28;93723;-68
2023/12/22 01:27:39;;;;;;;7.93;1.83;;;;;;;;;;4965609;28;92630;-67
2023/12/22 01:30:06;;;;;;;17.58;1.95;;;;;;;;;;4972984;28;91767;-68
2023/12/22 01:32:35;;;;;;;13.07;2.25;;;;;;;;;;4964247;28;92943;-67
2023/12/22 01:35:06;;;;;;;11.55;2.92;;;;;;;;;;4968804;28;93502;-67
2023/12/22 01:37:33;;;;;;;13.15;2.08;;;;;;;;;;4966632;28;94923;-68
2023/12/22 01:39:59;;;;;;;14.77;1.80;;;;;;;;;;4969992;28;95598;-68
2023/12/22 01:42:26;;;;;;;16.25;2.28;;;;;;;;;;4968951;28;97726;-68
2023/12/22 01:44:52;;;;;;;18.23;2.60;;;;;;;;;;4964980;28;92809;-67
2023/12/22 01:47:19;;;;;;;9.68;1.83;;;;;;;;;;4968396;28;93140;-67
2023/12/22 01:49:45;;;;;;;13.05;2.38;;;;;;;;;;4969259;28;92552;-67
2023/12/22 01:52:11;;;;;;;22.50;3.33;;;;;;;;;;4965736;28;92792;-67
2023/12/22 01:54:38;;;;;;;12.55;2.78;;;;;;;;;;4968913;28;93999;-67
2023/12/22 01:57:05;;;;;;;17.10;2.78;;;;;;;;;;4971479;28;94165;-67
2023/12/22 01:59:34;;;;;;;24.80;2.70;;;;;;;;;;4973018;28;93132;-67
2023/12/22 02:02:03;;;;;;;19.25;2.25;;;;;;;;;;4967491;28;97025;-67
2023/12/22 02:04:30;;;;;;;16.83;2.33;;;;;;;;;;4964862;28;92921;-67
2023/12/22 02:06:58;;;;;;;12.77;2.47;;;;;;;;;;4971510;28;93115;-67
2023/12/22 02:09:24;;;;;;;16.25;2.55;;;;;;;;;;4967568;28;92443;-67
2023/12/22 02:11:51;;;;;;;15.43;2.70;;;;;;;;;;4978420;28;93249;-67
2023/12/22 02:14:17;;;;;;;14.50;2.60;;;;;;;;;;4964474;28;94754;-67
2023/12/22 02:16:54;;;;;;;12.40;2.42;;;;;;;;;;4967645;28;92458;-67
2023/12/22 02:19:21;;;;;;;15.57;2.30;;;;;;;;;;4971432;28;93274;-68
2023/12/22 02:22:04;;;;;;;9.65;2.28;;;;;;;;;;4978146;28;93312;-67
2023/12/22 02:24:35;;;;;;;20.17;2.88;;;;;;;;;;4969224;28;92495;-67
2023/12/22 02:27:19;;;;;;;23.65;3.90;;;;;;;;;;4965555;28;94851;-67
2023/12/22 02:29:50;;;;;;;27.95;4.05;;;;;;;;;;4965681;28;93702;-67
2023/12/22 02:32:22;;;;;;;22.70;2.42;;;;;;;;;;4967842;28;93149;-67
2023/12/22 02:34:51;;;;;;;16.58;2.38;;;;;;;;;;4964601;28;94481;-67
2023/12/22 02:37:18;;;;;;;28.33;3.80;;;;;;;;;;4968015;28;92544;-67
2023/12/22 02:39:44;;;;;;;13.75;2.70;;;;;;;;;;4962942;28;93246;-67
2023/12/22 02:42:11;;;;;;;18.38;3.45;;;;;;;;;;4964959;28;93257;-67
2023/12/22 02:44:38;;;;;;;24.23;3.30;;;;;;;;;;4976050;28;91584;-68
2023/12/22 02:47:04;;;;;;;25.58;3.25;;;;;;;;;;4973701;28;93620;-68
2023/12/22 02:49:30;;;;;;;27.30;4.25;;;;;;;;;;4969030;28;93737;-67
2023/12/22 02:51:57;;;;;;;27.17;3.80;;;;;;;;;;4967537;28;95065;-67
2023/12/22 02:54:23;;;;;;;27.58;3.72;;;;;;;;;;4973735;28;93447;-68
2023/12/22 02:56:49;;;;;;;23.90;3.65;;;;;;;;;;4973795;28;94170;-68
2023/12/22 02:59:16;;;;;;;26.50;3.72;;;;;;;;;;4970575;28;93089;-67
2023/12/22 03:01:42;;;;;;;27.45;4.25;;;;;;;;;;4990651;28;92670;-67
2023/12/22 03:04:08;;;;;;;28.83;5.00;;;;;;;;;;4971767;28;92442;-68
2023/12/22 03:06:35;;;;;;;21.83;3.72;;;;;;;;;;4967766;28;93173;-67
2023/12/22 03:09:02;;;;;;;23.98;3.47;;;;;;;;;;4965774;28;92614;-67
2023/12/22 03:11:28;;;;;;;24.67;3.83;;;;;;;;;;4972099;28;92513;-67
2023/12/22 03:13:55;;;;;;;21.83;3.45;;;;;;;;;;4972490;28;93032;-67
2023/12/22 03:16:21;;;;;;;31.17;4.28;;;;;;;;;;4974336;28;94827;-67
2023/12/22 03:18:47;;;;;;;23.10;4.75;;;;;;;;;;4969541;28;95550;-67
2023/12/22 03:21:19;;;;;;;28.40;4.10;;;;;;;;;;4984914;28;93593;-67
2023/12/22 03:23:45;;;;;;;26.90;4.57;;;;;;;;;;4986055;28;92445;-68
2023/12/22 03:26:11;;;;;;;34.72;4.57;;;;;;;;;;4975763;28;93890;-67
2023/12/22 03:28:38;;;;;;;26.08;3.60;;;;;;;;;;4962750;28;93753;-68
2023/12/22 03:31:06;;;;;;;29.45;3.78;;;;;;;;;;4967089;28;92851;-68
2023/12/22 03:33:33;;;;;;;22.08;4.55;;;;;;;;;;4968021;28;93287;-67
2023/12/22 03:35:59;;;;;;;21.00;3.80;;;;;;;;;;4970512;28;93644;-67
2023/12/22 03:38:26;;;;;;;19.88;3.60;;;;;;;;;;4965234;28;93668;-67
2023/12/22 03:40:52;;;;;;;21.48;3.67;;;;;;;;;;4965418;28;95832;-67
2023/12/22 03:43:19;;;;;;;33.08;4.78;;;;;;;;;;4974288;28;92973;-67
2023/12/22 03:45:45;;;;;;;28.40;4.25;;;;;;;;;;4970229;28;93160;-67
2023/12/22 03:48:12;;;;;;;22.35;3.10;;;;;;;;;;4967538;28;93477;-67
2023/12/22 03:50:38;;;;;;;27.85;4.53;;;;;;;;;;4975417;28;92452;-67
2023/12/22 03:53:04;;;;;;;27.08;3.20;;;;;;;;;;4974546;28;93497;-67
2023/12/22 03:55:31;;;;;;;19.27;3.05;;;;;;;;;;4967213;28;93476;-67
2023/12/22 03:57:57;;;;;;;12.88;1.88;;;;;;;;;;4968851;28;92149;-67
2023/12/22 04:00:23;;;;;;;11.13;1.80;;;;;;;;;;4965700;28;93727;-67
2023/12/22 04:02:50;;;;;;;11.90;1.83;;;;;;;;;;4971687;28;92728;-67
2023/12/22 04:05:16;;;;;;;9.60;2.10;;;;;;;;;;4968544;28;95230;-67
2023/12/22 04:07:43;;;;;;;13.20;2.15;;;;;;;;;;4963789;28;93070;-67
2023/12/22 04:10:09;;;;;;;18.95;2.42;;;;;;;;;;4971469;28;92470;-67
2023/12/22 04:12:36;;;;;;;12.85;1.85;;;;;;;;;;4970003;28;93991;-68
2023/12/22 04:15:03;;;;;;;8.60;2.45;;;;;;;;;;4973926;28;94919;-68
2023/12/22 04:17:29;;;;;;;13.90;1.77;;;;;;;;;;4977767;28;92446;-67
2023/12/22 04:19:56;;;;;;;6.63;1.58;;;;;;;;;;4968979;28;93479;-67
2023/12/22 04:22:23;;;;;;;12.18;2.05;;;;;;;;;;4974125;28;91786;-67
2023/12/22 04:24:49;;;;;;;19.33;3.75;;;;;;;;;;4969015;28;92666;-67
2023/12/22 04:27:16;;;;;;;10.85;2.13;;;;;;;;;;4965961;28;93547;-67
2023/12/22 04:29:42;;;;;;;17.25;3.78;;;;;;;;;;4964209;28;94847;-67
2023/12/22 04:32:08;;;;;;;16.45;2.15;;;;;;;;;;4974875;28;95400;-68
2023/12/22 04:34:35;;;;;;;16.08;2.08;;;;;;;;;;4984444;28;93803;-67
2023/12/22 04:37:01;;;;;;;20.73;2.60;;;;;;;;;;4970260;28;92629;-67
2023/12/22 04:39:28;;;;;;;16.92;2.28;;;;;;;;;;4970478;28;93462;-67
2023/12/22 04:41:54;;;;;;;16.90;2.10;;;;;;;;;;4971683;28;92719;-68
2023/12/22 04:44:20;;;;;;;26.70;2.95;;;;;;;;;;4967302;28;94516;-67
2023/12/22 04:46:47;;;;;;;15.70;2.65;;;;;;;;;;4967963;28;92711;-67
2023/12/22 04:49:13;;;;;;;19.88;3.33;;;;;;;;;;4969593;28;93004;-67
2023/12/22 04:51:40;;;;;;;16.30;3.05;;;;;;;;;;4970901;28;93218;-68
2023/12/22 04:54:06;;;;;;;21.02;3.10;;;;;;;;;;4964838;28;95833;-67
2023/12/22 04:56:32;;;;;;;17.90;2.75;;;;;;;;;;4965536;28;92562;-67
2023/12/22 04:58:59;;;;;;;21.08;3.17;;;;;;;;;;4965197;28;93186;-67
2023/12/22 05:01:25;;;;;;;25.52;3.53;;;;;;;;;;4973618;28;94528;-67
2023/12/22 05:03:53;;;;;;;24.48;4.32;;;;;;;;;;4969151;28;94923;-67
2023/12/22 05:06:20;;;;;;;26.73;5.47;;;;;;;;;;4963623;28;94979;-67
2023/12/22 05:08:46;;;;;;;18.08;3.33;;;;;;;;;;4972297;28;92653;-67
2023/12/22 05:11:12;;;;;;;30.60;5.13;;;;;;;;;;4970576;28;93911;-68
2023/12/22 05:13:40;;;;;;;27.60;4.28;;;;;;;;;;4964070;28;93738;-67
2023/12/22 05:16:06;;;;;;;32.47;4.75;;;;;;;;;;4964437;28;92536;-66
2023/12/22 05:18:33;;;;;;;33.45;4.65;;;;;;;;;;4963727;28;95060;-67
2023/12/22 05:20:59;;;;;;;30.50;4.28;;;;;;;;;;4967351;28;93447;-66
2023/12/22 05:23:26;;;;;;;32.20;4.22;;;;;;;;;;4970601;28;92431;-67
2023/12/22 05:25:52;;;;;;;24.23;3.67;;;;;;;;;;4970150;28;94151;-66
2023/12/22 05:28:19;;;;;;;19.58;3.47;;;;;;;;;;4969530;28;92894;-66
2023/12/22 05:30:45;;;;;;;28.75;3.20;;;;;;;;;;4968347;28;93126;-66
2023/12/22 05:33:12;;;;;;;19.58;3.63;;;;;;;;;;4965316;28;92789;-66
2023/12/22 05:35:38;;;;;;;14.73;2.70;;;;;;;;;;4965707;28;91899;-66
2023/12/22 05:38:06;;;;;;;18.25;3.25;;;;;;;;;;4966439;28;95086;-66
2023/12/22 05:40:32;;;;;;;26.20;3.50;;;;;;;;;;4968729;28;93732;-67
2023/12/22 05:42:59;;;;;;;30.80;3.95;;;;;;;;;;4970798;28;94907;-67
2023/12/22 05:45:25;;;;;;;21.00;2.95;;;;;;;;;;4968948;28;95802;-66
2023/12/22 05:47:53;;;;;;;18.95;3.08;;;;;;;;;;4967524;28;92639;-66
2023/12/22 05:50:20;;;;;;;16.90;2.88;;;;;;;;;;4967454;28;93165;-66
2023/12/22 05:52:46;;;;;;;22.05;3.30;;;;;;;;;;4965222;28;93561;-66
2023/12/22 05:55:12;;;;;;;14.98;3.30;;;;;;;;;;4969341;28;92459;-66
2023/12/22 05:57:39;;;;;;;22.88;3.30;;;;;;;;;;4972798;28;92383;-66
2023/12/22 06:00:07;;;;;;;19.45;3.13;;;;;;;;;;4966471;28;92617;-67
2023/12/22 06:02:34;;;;;;;13.45;2.60;;;;;;;;;;4963934;28;92540;-67
2023/12/22 06:05:00;;;;;;;15.38;2.97;;;;;;;;;;4971857;28;93821;-67
2023/12/22 06:07:27;;;;;;;14.38;2.40;;;;;;;;;;4967882;28;94983;-66
2023/12/22 06:09:53;;;;;;;28.50;3.22;;;;;;;;;;4964073;28;95619;-66
2023/12/22 06:12:19;;;;;;;20.98;3.08;;;;;;;;;;4966465;28;93451;-66
2023/12/22 06:14:46;;;;;;;17.25;3.13;;;;;;;;;;4968372;28;92590;-66
2023/12/22 06:17:12;;;;;;;24.35;3.60;;;;;;;;;;4969435;28;93352;-66
2023/12/22 06:19:38;;;;;;;28.83;4.00;;;;;;;;;;4980978;28;93368;-66
2023/12/22 06:22:05;;;;;;;18.23;3.30;;;;;;;;;;4970461;28;92911;-67
2023/12/22 06:24:34;;;;;;;37.72;3.97;;;;;;;;;;4973706;28;93141;-67
2023/12/22 06:27:00;;;;;;;29.10;3.75;;;;;;;;;;4969768;28;93646;-66
2023/12/22 06:29:27;;;;;;;30.70;4.03;;;;;;;;;;4969604;28;95237;-66
2023/12/22 06:31:56;;;;;;;24.77;4.30;;;;;;;;;;4962489;28;96201;-66
2023/12/22 06:34:23;;;;;;;22.13;4.13;;;;;;;;;;4972363;28;92924;-66
2023/12/22 06:36:50;;;;;;;34.90;3.85;;;;;;;;;;4968608;28;93258;-67
2023/12/22 06:39:16;;;;;;;24.83;3.03;;;;;;;;;;4968053;28;93723;-66
2023/12/22 06:41:43;;;;;;;31.10;4.20;;;;;;;;;;4973902;28;92509;-67
2023/12/22 06:44:10;;;;;;;25.52;3.58;;;;;;;;;;4969454;28;93161;-67
2023/12/22 06:46:37;;;;;;;22.58;4.13;;;;;;;;;;4965328;28;92580;-67
2023/12/22 06:49:04;;;;;;;23.38;3.53;;;;;;;;;;4973593;28;91933;-66
2023/12/22 06:51:34;;;;;;;13.60;3.55;;;;;;;;;;4969341;28;93825;-67
2023/12/22 06:54:02;;;;;;;30.73;5.68;;;;;;;;;;4970266;28;92409;-66
2023/12/22 06:56:30;;;;;;;25.98;3.40;;;;;;;;;;4966713;28;94817;-67
2023/12/22 06:58:59;;;;;;;24.60;3.92;;;;;;;;;;4963877;28;93376;-66
2023/12/22 07:01:29;;;;;;;30.52;3.50;;;;;;;;;;4967104;28;92714;-66
2023/12/22 07:03:56;;;;;;;32.38;4.38;;;;;;;;;;4984253;28;94132;-66
2023/12/22 07:06:23;;;;;;;28.80;4.10;;;;;;;;;;4971028;28;94215;-67
2023/12/22 07:09:16;;;;;;;25.77;4.35;;;;;;;;;;4964315;28;92462;-66
2023/12/22 07:11:55;;;;;;;28.27;4.03;;;;;;;;;;4966963;28;93109;-66
2023/12/22 07:14:23;;;;;;;25.63;4.97;;;;;;;;;;4967004;28;92096;-67
2023/12/22 07:16:50;;;;;;;33.72;4.82;;;;;;;;;;4971235;28;92516;-67
2023/12/22 07:19:16;;;;;;;35.35;5.60;;;;;;;;;;4966878;28;93537;-67
2023/12/22 07:21:42;;;;;;;28.63;4.38;;;;;;;;;;4962551;28;94965;-66
2023/12/22 07:24:12;;;;;;;33.03;5.20;;;;;;;;;;4967685;28;95735;-66
2023/12/22 07:26:41;;;;;;;31.85;5.50;;;;;;;;;;4968209;28;94486;-67
2023/12/22 07:29:07;;;;;;;35.83;5.00;;;;;;;;;;4966091;28;92421;-66
2023/12/22 07:31:34;;;;;;;37.83;5.50;;;;;;;;;;4970385;28;93213;-66
2023/12/22 07:34:01;;;;;;;36.10;5.50;;;;;;;;;;4972707;28;93352;-66
2023/12/22 07:36:28;;;;;;;37.50;5.55;;;;;;;;;;4968984;28;94143;-66
2023/12/22 07:38:57;;;;;;;34.00;5.40;;;;;;;;;;4988058;28;93666;-67
2023/12/22 07:41:23;;;;;;;30.77;5.22;;;;;;;;;;4974417;28;92414;-66
2023/12/22 07:43:50;;;;;;;42.33;6.53;;;;;;;;;;4970734;28;93528;-66
2023/12/22 07:46:19;;;;;;;41.63;6.28;;;;;;;;;;4965923;28;95867;-67
2023/12/22 07:48:46;;;;;;;43.85;6.32;;;;;;;;;;4968109;28;92436;-66
2023/12/22 07:51:14;;;;;;;23.02;3.80;;;;;;;;;;4974057;28;93239;-67
2023/12/22 07:53:40;;;;;;;18.00;2.58;;;;;;;;;;4967170;28;93352;-66
2023/12/22 07:56:10;;;;;;;19.60;2.60;;;;;;;;;;4969179;28;92774;-66
2023/12/22 07:58:38;;;;;;;16.33;3.67;;;;;;;;;;4971004;28;97912;-67
2023/12/22 08:01:05;;;;;;;24.85;4.93;;;;;;;;;;4972648;28;92413;-66
2023/12/22 08:03:32;;;;;;;19.73;3.00;;;;;;;;;;4970146;28;94142;-66
2023/12/22 08:05:58;;;;;;;27.92;5.07;;;;;;;;;;4964978;28;93433;-66
2023/12/22 08:08:25;;;;;;;43.88;5.10;;;;;;;;;;4970044;28;95734;-66
2023/12/22 08:10:51;;;;;;;39.33;6.00;;;;;;;;;;4973094;28;95010;-67
2023/12/22 08:13:17;;;;;;;23.85;4.20;;;;;;;;;;4973066;28;93517;-65
2023/12/22 08:15:44;;;;;;;33.45;5.47;;;;;;;;;;4988224;28;92533;-67
2023/12/22 08:18:11;;;;;;;37.80;6.28;;;;;;;;;;4970383;28;93730;-66
2023/12/22 08:20:37;;;;;;;33.35;5.40;;;;;;;;;;4970265;28;92446;-65
2023/12/22 08:23:08;;;;;;;37.83;6.65;;;;;;;;;;4966365;28;93634;-65
2023/12/22 08:25:40;;;;;;;39.92;5.65;;;;;;;;;;4972364;28;93670;-65
2023/12/22 08:28:07;;;;;;;32.97;4.78;;;;;;;;;;4967331;28;91708;-65
2023/12/22 08:30:33;;;;;;;25.95;4.28;;;;;;;;;;4972706;28;92980;-65
2023/12/22 08:33:00;;;;;;;28.52;4.00;;;;;;;;;;4971184;28;95106;-65
2023/12/22 08:35:26;;;;;;;21.73;3.45;;;;;;;;;;4970592;28;94965;-66
2023/12/22 08:37:53;;;;;;;17.77;3.53;;;;;;;;;;4977104;28;95537;-65
2023/12/22 08:40:25;;;;;;;19.10;2.55;;;;;;;;;;4970364;28;92594;-65
2023/12/22 08:42:59;;;;;;;9.82;2.00;;;;;;;;;;4964382;28;93160;-64
2023/12/22 08:45:28;;;;;;;17.52;2.55;;;;;;;;;;4970263;28;93546;-65
2023/12/22 08:47:55;;;;;;;19.13;3.05;;;;;;;;;;4973807;28;92434;-66
2023/12/22 08:50:22;;;;;;;19.98;2.90;;;;;;;;;;4974136;28;93327;-66
2023/12/22 08:52:48;;;;;;;15.45;2.53;;;;;;;;;;4966530;28;92566;-67
2023/12/22 08:55:14;;;;;;;16.10;3.28;;;;;;;;;;4973275;28;92578;-67
2023/12/22 08:57:41;;;;;;;18.95;3.03;;;;;;;;;;4969641;28;93742;-67
2023/12/22 09:00:21;;;;;;;19.92;3.10;;;;;;;;;;4969865;28;96580;-67
2023/12/22 09:02:47;;;;;;;22.23;3.10;;;;;;;;;;4969747;28;95576;-66
2023/12/22 09:05:14;;;;;;;30.67;4.68;;;;;;;;;;4969589;28;93609;-67
2023/12/22 09:07:40;;;;;;;24.30;4.03;;;;;;;;;;4969800;28;94365;-67
2023/12/22 09:10:07;;;;;;;24.23;3.95;;;;;;;;;;4972470;28;93180;-67
2023/12/22 09:12:34;;;;;;;20.63;3.03;;;;;;;;;;4969268;28;93532;-66
2023/12/22 09:15:00;;;;;;;22.98;3.72;;;;;;;;;;4974259;28;92481;-67
2023/12/22 09:17:28;;;;;;;18.13;3.42;;;;;;;;;;4972466;28;93167;-68
2023/12/22 09:19:55;;;;;;;19.65;3.45;;;;;;;;;;4972785;28;93592;-67
2023/12/22 09:22:22;;;;;;;7.18;1.70;;;;;;;;;;4971032;28;92391;-67
2023/12/22 09:24:48;;;;;;;9.43;1.95;;;;;;;;;;4969431;28;96849;-67
2023/12/22 09:27:15;;;;;;;9.23;1.70;;;;;;;;;;4970501;28;92627;-67
2023/12/22 09:29:42;;;;;;;15.27;1.80;;;;;;;;;;4966513;28;93362;-68
2023/12/22 09:32:08;;;;;;;8.23;1.48;;;;;;;;;;4967808;28;93400;-67
2023/12/22 09:34:34;;;;;;;5.57;1.38;;;;;;;;;;4973258;28;92485;-67
2023/12/22 09:37:01;;;;;;;7.10;1.10;;;;;;;;;;4972994;28;93611;-67
2023/12/22 09:39:28;;;;;;;4.38;0.85;;;;;;;;;;4973611;28;92828;-66
2023/12/22 09:41:55;;;;;;;3.38;0.55;;;;;;;;;;4985087;28;91794;-67
2023/12/22 09:44:21;;;;;;;4.28;1.00;;;;;;;;;;4968548;28;92518;-67
2023/12/22 09:46:52;;;;;;;2.10;0.68;;;;;;;;;;4968186;28;92781;-67
2023/12/22 09:49:20;;;;;;;7.13;1.15;;;;;;;;;;4968485;28;94934;-67
2023/12/22 09:51:47;;;;;;;6.47;1.40;;;;;;;;;;4968710;28;94742;-67
2023/12/22 09:54:13;;;;;;;6.57;1.13;;;;;;;;;;4971760;28;93518;-68
2023/12/22 09:56:42;;;;;;;10.40;1.52;;;;;;;;;;4969322;28;93079;-67
2023/12/22 09:59:12;;;;;;;8.93;1.58;;;;;;;;;;4964164;28;93453;-67
2023/12/22 10:01:46;;;;;;;6.30;1.48;;;;;;;;;;4966083;28;92965;-67
2023/12/22 10:04:13;;;;;;;17.67;2.10;;;;;;;;;;4972051;28;93113;-68
2023/12/22 10:06:41;;;;;;;18.75;2.30;;;;;;;;;;4971070;28;92856;-68
2023/12/22 10:09:08;;;;;;;8.30;1.83;;;;;;;;;;4965168;28;92477;-67
2023/12/22 10:11:36;;;;;;;7.97;1.85;;;;;;;;;;4968458;28;93414;-68
2023/12/22 10:14:04;;;;;;;15.93;2.40;;;;;;;;;;4970196;28;95004;-68
2023/12/22 10:16:31;;;;;;;18.63;2.30;;;;;;;;;;4972361;28;96794;-68
2023/12/22 10:18:59;;;;;;;15.40;2.13;;;;;;;;;;4967218;28;93384;-67
2023/12/22 10:21:26;;;;;;;11.63;1.92;;;;;;;;;;4968883;28;92492;-67
2023/12/22 10:23:52;;;;;;;17.20;3.15;;;;;;;;;;4969084;28;93092;-68
2023/12/22 10:26:18;;;;;;;13.27;2.17;;;;;;;;;;4968132;28;93426;-68
2023/12/22 10:28:46;;;;;;;10.13;1.95;;;;;;;;;;4963648;28;93383;-69
2023/12/22 10:31:13;;;;;;;9.65;2.28;;;;;;;;;;4965438;28;92810;-68
2023/12/22 10:33:39;;;;;;;6.93;1.55;;;;;;;;;;4967900;28;94352;-68
2023/12/22 10:36:07;;;;;;;9.93;1.65;;;;;;;;;;4968778;28;93102;-68
2023/12/22 10:38:36;;;;;;;8.02;1.67;;;;;;;;;;4964838;28;95828;-68
2023/12/22 10:41:03;;;;;;;12.18;1.65;;;;;;;;;;4963706;28;93050;-68
2023/12/22 10:43:29;;;;;;;10.68;1.90;;;;;;;;;;4969062;28;94563;-67
2023/12/22 10:45:56;;;;;;;10.93;2.17;;;;;;;;;;4968697;28;93763;-68
2023/12/22 10:48:22;;;;;;;12.65;1.50;;;;;;;;;;4965856;28;93651;-68
2023/12/22 10:50:49;;;;;;;14.38;1.92;;;;;;;;;;4965918;28;93569;-67
2023/12/22 10:53:15;;;;;;;8.68;2.33;;;;;;;;;;4971790;28;92666;-68
2023/12/22 10:55:46;;;;;;;8.50;2.13;;;;;;;;;;4963599;28;93091;-68
2023/12/22 10:58:13;;;;;;;11.43;1.92;;;;;;;;;;4970429;28;93895;-67
2023/12/22 11:00:41;;;;;;;13.25;1.90;;;;;;;;;;4968241;28;92698;-67
2023/12/22 11:03:08;;;;;;;19.02;2.13;;;;;;;;;;4965610;28;94914;-68
2023/12/22 11:05:36;;;;;;;10.07;1.58;;;;;;;;;;4969061;28;93430;-68
2023/12/22 11:08:03;;;;;;;12.68;1.80;;;;;;;;;;4968437;28;93041;-67
2023/12/22 11:10:30;;;;;;;10.88;1.98;;;;;;;;;;4970404;28;93272;-68
2023/12/22 11:12:57;;;;;;;18.92;2.45;;;;;;;;;;4974901;28;92725;-68
2023/12/22 11:15:24;;;;;;;16.15;2.63;;;;;;;;;;4975640;28;93257;-68
2023/12/22 11:17:51;;;;;;;19.73;2.35;;;;;;;;;;4964063;28;93712;-68
2023/12/22 11:20:18;;;;;;;13.50;1.73;;;;;;;;;;4967907;28;91759;-68
2023/12/22 11:22:46;;;;;;;9.95;2.10;;;;;;;;;;4967664;28;92524;-68
2023/12/22 11:25:15;;;;;;;7.32;2.03;;;;;;;;;;4965494;28;93457;-68
2023/12/22 11:27:43;;;;;;;;;;;;;;;;;;4968013;28;95048;-68
2023/12/22 11:30:11;;;;;;;10.07;2.08;;;;;;;;;;4968422;28;126241;-68
2023/12/22 11:32:39;;;;;;;10.80;1.95;;;;;;;;;;4971651;28;93522;-68
2023/12/22 11:35:07;;;;;;;9.73;1.48;;;;;;;;;;4966431;28;93246;-68
2023/12/22 11:37:35;;;;;;;12.00;1.90;;;;;;;;;;4964264;28;95197;-67
2023/12/22 11:40:02;;;;;;;16.02;2.35;;;;;;;;;;4972451;28;92536;-67
2023/12/22 11:42:31;;;;;;;12.45;2.03;;;;;;;;;;4967250;28;93148;-67
2023/12/22 11:44:58;;;;;;;10.38;1.73;;;;;;;;;;4968032;28;92475;-67
2023/12/22 11:47:25;;;;;;;13.52;2.05;;;;;;;;;;4968451;28;92720;-67
2023/12/22 11:49:52;;;;;;;10.98;2.10;;;;;;;;;;4972414;28;93287;-68
2023/12/22 11:52:24;;;;;;;15.65;2.65;;;;;;;;;;4970243;28;96117;-67
2023/12/22 11:54:54;;;;;;;10.68;2.28;;;;;;;;;;4977422;28;92726;-67
2023/12/22 11:57:33;;;;;;;8.23;1.98;;;;;;;;;;4964820;28;93473;-67
2023/12/22 12:00:07;;;;;;;11.75;1.90;;;;;;;;;;4970836;28;92451;-67
2023/12/22 12:02:35;;;;;;;12.45;1.70;;;;;;;;;;4973409;28;93169;-67
2023/12/22 12:05:03;;;;;;;10.93;2.08;;;;;;;;;;4970422;28;93371;-67
2023/12/22 12:07:39;;;;;;;16.75;2.42;;;;;;;;;;4970353;28;94368;-67
2023/12/22 12:10:09;;;;;;;18.10;2.00;;;;;;;;;;4974495;28;93455;-67
2023/12/22 12:12:36;;;;;;;10.82;2.17;;;;;;;;;;4973555;28;92506;-66
2023/12/22 12:15:23;;;;;;;17.80;2.10;;;;;;;;;;4969712;28;92527;-66
2023/12/22 12:17:49;;;;;;;8.13;1.75;;;;;;;;;;4966908;28;94980;-64
2023/12/22 12:20:17;;;;;;;11.80;1.98;;;;;;;;;;4967605;28;92513;-66
2023/12/22 12:22:43;;;;;;;14.98;1.77;;;;;;;;;;4985772;28;92997;-67
2023/12/22 12:25:10;;;;;;;10.98;1.95;;;;;;;;;;4970390;28;93055;-66
2023/12/22 12:28:03;;;;;;;12.35;2.75;;;;;;;;;;4969823;28;93729;-67
2023/12/22 12:30:31;;;;;;;12.65;1.92;;;;;;;;;;4967250;28;93440;-66
2023/12/22 12:33:07;;;;;;;10.10;1.33;;;;;;;;;;4973796;28;92480;-67
2023/12/22 12:35:34;;;;;;;12.10;1.60;;;;;;;;;;4973248;28;93777;-65
2023/12/22 12:38:03;;;;;;;8.75;1.65;;;;;;;;;;4973102;28;93561;-66
2023/12/22 12:40:32;;;;;;;13.30;1.73;;;;;;;;;;4967065;28;92450;-66
2023/12/22 12:42:58;;;;;;;12.70;2.13;;;;;;;;;;4969832;28;95049;-65
2023/12/22 12:45:26;;;;;;;18.27;2.42;;;;;;;;;;4970681;28;95057;-65
2023/12/22 12:47:59;;;;;;;14.45;1.83;;;;;;;;;;4970134;28;92418;-66
2023/12/22 12:50:28;;;;;;;11.88;2.08;;;;;;;;;;4985416;28;94303;-65
2023/12/22 12:52:55;;;;;;;13.43;1.65;;;;;;;;;;4968707;28;93431;-66
2023/12/22 12:55:22;;;;;;;10.90;2.28;;;;;;;;;;4969953;28;92828;-66
2023/12/22 12:57:52;;;;;;;10.35;2.13;;;;;;;;;;4969052;28;93237;-65
2023/12/22 13:00:28;;;;;;;12.43;2.47;;;;;;;;;;4975804;28;91820;-65
2023/12/22 13:02:58;;;;;;;15.75;4.70;;;;;;;;;;4970192;28;92449;-65
2023/12/22 13:05:25;;;;;;;;;;;;;;;;;;4966429;28;93569;-66
2023/12/22 13:07:52;;;;;;;12.25;2.42;;;;;;;;;;4972231;28;118546;-66
2023/12/22 13:10:22;;;;;;;17.52;2.60;;;;;;;;;;4969480;28;95738;-66
2023/12/22 13:12:50;;;;;;;13.40;2.38;;;;;;;;;;4964099;28;94494;-66
2023/12/22 13:15:16;;;;;;;10.15;1.83;;;;;;;;;;4967320;28;92481;-66
2023/12/22 13:17:43;;;;;;;9.35;1.90;;;;;;;;;;4969719;28;93160;-66
2023/12/22 13:20:11;;;;;;;16.98;2.65;;;;;;;;;;4972522;28;93575;-66
2023/12/22 13:22:37;;;;;;;15.25;2.28;;;;;;;;;;4973547;28;92808;-65
2023/12/22 13:25:04;;;;;;;16.17;2.67;;;;;;;;;;4970224;28;92925;-66
2023/12/22 13:27:30;;;;;;;14.45;2.65;;;;;;;;;;4969853;28;92793;-67
2023/12/22 13:29:56;;;;;;;13.10;2.08;;;;;;;;;;4967147;28;93477;-68
2023/12/22 13:32:27;;;;;;;16.15;2.03;;;;;;;;;;4963065;28;96979;-68
2023/12/22 13:34:53;;;;;;;;;;;;;;;;;;4972809;28;92530;-67
2023/12/22 13:37:20;;;;;;;14.00;2.17;;;;;;;;;;4969700;28;123617;-67
2023/12/22 13:39:46;;;;;;;12.43;1.50;;;;;;;;;;4969209;28;93305;-67
2023/12/22 13:42:16;;;;;;;10.57;2.47;;;;;;;;;;4969441;28;92539;-67
2023/12/22 13:44:44;;;;;;;14.68;1.55;;;;;;;;;;4971761;28;93285;-67
2023/12/22 13:47:10;;;;;;;12.88;2.40;;;;;;;;;;4983687;28;92619;-67
2023/12/22 13:49:36;;;;;;;14.48;1.92;;;;;;;;;;4970834;28;93170;-67
2023/12/22 13:52:07;;;;;;;12.07;2.17;;;;;;;;;;4969088;28;93517;-67
2023/12/22 13:54:34;;;;;;;18.67;2.20;;;;;;;;;;4972024;28;92493;-67
2023/12/22 13:57:01;;;;;;;15.13;2.45;;;;;;;;;;4966760;28;94806;-67
2023/12/22 13:59:32;;;;;;;12.60;2.65;;;;;;;;;;4968730;28;93480;-67
2023/12/22 14:01:58;;;;;;;;;;;;;;;;;;4989523;28;92536;-67
2023/12/22 14:04:25;;;;;;;18.02;3.05;;;;;;;;;;4965445;28;123262;-67
2023/12/22 14:06:51;;;;;;;11.90;2.17;;;;;;;;;;4971576;28;94441;-68
2023/12/22 14:09:21;;;;;;;18.48;2.42;;;;;;;;;;4968668;28;94294;-67
2023/12/22 14:11:48;;;;;;;9.57;1.77;;;;;;;;;;4982254;28;93486;-68
2023/12/22 14:14:27;;;;;;;15.25;2.25;;;;;;;;;;4970721;28;91874;-68
2023/12/22 14:16:53;;;;;;;9.00;1.88;;;;;;;;;;4968417;28;92558;-67
2023/12/22 14:19:19;;;;;;;16.70;3.15;;;;;;;;;;4972112;28;93434;-67
2023/12/22 14:21:46;;;;;;;18.98;2.40;;;;;;;;;;4967249;28;94987;-67
2023/12/22 14:24:12;;;;;;;14.35;2.72;;;;;;;;;;4972887;28;95578;-67
2023/12/22 14:26:51;;;;;;;15.63;3.30;;;;;;;;;;4966647;28;93426;-67
2023/12/22 14:29:18;;;;;;;17.23;2.45;;;;;;;;;;4974650;28;92732;-67
2023/12/22 14:31:44;;;;;;;15.57;2.10;;;;;;;;;;4967201;28;94514;-67
2023/12/22 14:34:13;;;;;;;16.15;2.42;;;;;;;;;;4968507;28;92453;-69
2023/12/22 14:36:40;;;;;;;20.52;2.55;;;;;;;;;;4968592;28;93437;-68